Airfield :
LOGIN :

Register | Disclaimer

   EN    FR    IT 

 










Legend :    VFR   Marginal VFR   IFR   Intensive IFR   Very Intensive IFR
Visi :
Ceiling :
>= 8 km
>= 3000ft
5 to 8 km
1000 to 3000 ft
1500m to 5 km
500 to 1000 ft
800 to 1500m
200 to 500 ft
< 800m
< 200 ft
Symbols :   Thunderstorms  Fog  Heavy snow  Heavy precipitations  Wind > 20 kt
SIGMETs :     Misc.  Thunderstorms  Icing  Turbulence  Mountain Waves  Volcanic Ashes







- Airport Elevation : 74 ft
- IATA code : LRH
- Download approach charts


LFBH - La Rochelle Ile de Ré

CURRENT METAR :
  • 162200Z AUTO 33007KT CAVOK 06/03 Q1027 NOSIG

EXPIRED METARs :
  • 162130Z AUTO 32008KT CAVOK 07/03 Q1027 NOSIG
  • 162100Z AUTO 32006KT CAVOK 06/04 Q1027 NOSIG
  • 162030Z AUTO 33008KT CAVOK 06/03 Q1027 NOSIG
  • 162000Z AUTO 34009KT CAVOK 07/03 Q1027 NOSIG
  • 161930Z AUTO 33010KT CAVOK 07/03 Q1026 NOSIG

TAF TAF LFBH
Valid from the 16 at 18:00 until the 17 at 18:00 UTC


161700Z 1618/1718 35008KT CAVOK
BECMG 1705/1706 OVC040
PROB40
TEMPO 1706/1709 4000 -RA BKN014
BECMG 1714/1716 20008KT
ATIS : +33 5 46 00 13 92
No reported NOTAMs for that airfield.



MET'MAP, your aeronautical weather chart ! - Copyright ORBIFLY December 2007 - Disclaimer

ORBIFLY MET'MAP TEAM :

Programming & Development : Alexandra Zaïnal
Concept & Development : Baudouin d'Aumeries
Co-Development & Prog : Marc-Olivier Méhu
Technical & hardware support : Manuel Goepfert

Contact : metmap@orbifly.com




SOURCES & CREDITS :

   NOAA